Cecil, Georgia
Current Conditions -  °F | °C
As of 2:50 AM on Sunday 23 Nov 2014 (Local Time) from KVAD Reporting Station
Light Rain Light Rain  
Wind Chill: 61°   Ceiling: 300
Heat Index: 61°   Visibility: 6mi
Dew Point: 59°   Wind: 7mph
Humidity: 94%   Direction: 60°ENE
Pressure: 30.03"   Gusts: NA
Location:  31.05°N, 83.39°W
Report Text: KVAD 230750Z AUTO 06006KT 6SM R36/5000FT -RA BR OVC003 16/15 A3003 RMK AO2 PRESFR $
Loading
Personal Weather Stations






























Interactive Weather Map New forecast layout! Learn more

10-Day Weather Forecast

Advertisements
Track Severe Weather on mobile